sensor_id;sensor_type;location;lat;lon;timestamp;temperature;humidity
38458;DHT22;24239;48.058;10.486;2022-08-19T00:00:27;16.80;99.90
38458;DHT22;24239;48.058;10.486;2022-08-19T00:02:53;16.90;99.90
38458;DHT22;24239;48.058;10.486;2022-08-19T00:05:22;16.90;99.90
38458;DHT22;24239;48.058;10.486;2022-08-19T00:07:49;16.80;99.90
38458;DHT22;24239;48.058;10.486;2022-08-19T00:10:16;16.80;99.90
38458;DHT22;24239;48.058;10.486;2022-08-19T00:12:44;16.90;99.90
38458;DHT22;24239;48.058;10.486;2022-08-19T00:15:13;16.90;99.90
38458;DHT22;24239;48.058;10.486;2022-08-19T00:17:41;16.90;99.90
38458;DHT22;24239;48.058;10.486;2022-08-19T00:20:11;16.90;99.90
38458;DHT22;24239;48.058;10.486;2022-08-19T00:22:37;16.90;99.90
38458;DHT22;24239;48.058;10.486;2022-08-19T00:25:05;16.90;99.90
38458;DHT22;24239;48.058;10.486;2022-08-19T00:27:34;16.90;99.90
38458;DHT22;24239;48.058;10.486;2022-08-19T00:30:00;17.00;99.90
38458;DHT22;24239;48.058;10.486;2022-08-19T00:32:29;17.00;99.90
38458;DHT22;24239;48.058;10.486;2022-08-19T00:34:55;17.00;99.90
38458;DHT22;24239;48.058;10.486;2022-08-19T00:37:23;17.00;99.90
38458;DHT22;24239;48.058;10.486;2022-08-19T00:39:52;17.00;99.90
38458;DHT22;24239;48.058;10.486;2022-08-19T00:42:24;17.00;99.90
38458;DHT22;24239;48.058;10.486;2022-08-19T00:44:53;17.00;99.90
38458;DHT22;24239;48.058;10.486;2022-08-19T00:47:19;17.00;99.90
38458;DHT22;24239;48.058;10.486;2022-08-19T00:49:55;17.00;99.90
38458;DHT22;24239;48.058;10.486;2022-08-19T00:52:30;17.00;99.90
38458;DHT22;24239;48.058;10.486;2022-08-19T00:54:58;17.00;99.90
38458;DHT22;24239;48.058;10.486;2022-08-19T00:57:32;17.00;99.90
38458;DHT22;24239;48.058;10.486;2022-08-19T01:00:06;17.00;99.90
38458;DHT22;24239;48.058;10.486;2022-08-19T01:02:33;17.00;99.90
38458;DHT22;24239;48.058;10.486;2022-08-19T01:05:03;17.00;99.90
38458;DHT22;24239;48.058;10.486;2022-08-19T01:07:30;17.00;99.90
38458;DHT22;24239;48.058;10.486;2022-08-19T01:09:56;17.00;99.90
38458;DHT22;24239;48.058;10.486;2022-08-19T01:12:22;17.00;99.90
38458;DHT22;24239;48.058;10.486;2022-08-19T01:14:49;16.90;99.90
38458;DHT22;24239;48.058;10.486;2022-08-19T01:17:19;17.00;99.90
38458;DHT22;24239;48.058;10.486;2022-08-19T01:19:45;16.90;99.90
38458;DHT22;24239;48.058;10.486;2022-08-19T01:22:41;16.90;99.90
38458;DHT22;24239;48.058;10.486;2022-08-19T01:25:08;16.90;99.90
38458;DHT22;24239;48.058;10.486;2022-08-19T01:27:42;17.00;99.90
38458;DHT22;24239;48.058;10.486;2022-08-19T01:30:14;16.90;99.90
38458;DHT22;24239;48.058;10.486;2022-08-19T01:32:40;16.90;99.90
38458;DHT22;24239;48.058;10.486;2022-08-19T01:35:06;17.00;99.90
38458;DHT22;24239;48.058;10.486;2022-08-19T01:37:43;16.90;99.90
38458;DHT22;24239;48.058;10.486;2022-08-19T01:40:10;17.00;99.90
38458;DHT22;24239;48.058;10.486;2022-08-19T01:42:35;16.90;99.90
38458;DHT22;24239;48.058;10.486;2022-08-19T01:45:02;16.90;99.90
38458;DHT22;24239;48.058;10.486;2022-08-19T01:47:28;16.90;99.90
38458;DHT22;24239;48.058;10.486;2022-08-19T01:49:53;16.90;99.90
38458;DHT22;24239;48.058;10.486;2022-08-19T01:52:19;16.90;99.90
38458;DHT22;24239;48.058;10.486;2022-08-19T01:54:45;16.90;99.90
38458;DHT22;24239;48.058;10.486;2022-08-19T01:57:12;17.00;99.90
38458;DHT22;24239;48.058;10.486;2022-08-19T01:59:40;17.00;99.90
38458;DHT22;24239;48.058;10.486;2022-08-19T02:02:09;17.00;99.90
38458;DHT22;24239;48.058;10.486;2022-08-19T02:04:36;17.00;99.90
38458;DHT22;24239;48.058;10.486;2022-08-19T02:07:04;17.00;99.90
38458;DHT22;24239;48.058;10.486;2022-08-19T02:09:31;17.00;99.90
38458;DHT22;24239;48.058;10.486;2022-08-19T02:11:57;17.00;99.90
38458;DHT22;24239;48.058;10.486;2022-08-19T02:14:26;17.10;99.90
38458;DHT22;24239;48.058;10.486;2022-08-19T02:16:52;17.10;99.90
38458;DHT22;24239;48.058;10.486;2022-08-19T02:19:18;17.00;99.90
38458;DHT22;24239;48.058;10.486;2022-08-19T02:21:43;17.00;99.90
38458;DHT22;24239;48.058;10.486;2022-08-19T02:24:10;17.00;99.90
38458;DHT22;24239;48.058;10.486;2022-08-19T02:26:35;17.00;99.90
38458;DHT22;24239;48.058;10.486;2022-08-19T02:29:02;17.00;99.90
38458;DHT22;24239;48.058;10.486;2022-08-19T02:31:30;17.10;99.90
38458;DHT22;24239;48.058;10.486;2022-08-19T02:33:59;17.10;99.90
38458;DHT22;24239;48.058;10.486;2022-08-19T02:36:25;17.10;99.90
38458;DHT22;24239;48.058;10.486;2022-08-19T02:38:55;17.10;99.90
38458;DHT22;24239;48.058;10.486;2022-08-19T02:41:25;17.10;99.90
38458;DHT22;24239;48.058;10.486;2022-08-19T02:43:51;17.10;99.90
38458;DHT22;24239;48.058;10.486;2022-08-19T02:48:51;17.10;99.90
38458;DHT22;24239;48.058;10.486;2022-08-19T02:51:20;17.10;99.90
38458;DHT22;24239;48.058;10.486;2022-08-19T02:53:46;17.20;99.90
38458;DHT22;24239;48.058;10.486;2022-08-19T02:56:12;17.20;99.90
38458;DHT22;24239;48.058;10.486;2022-08-19T02:58:39;17.10;99.90
38458;DHT22;24239;48.058;10.486;2022-08-19T03:01:05;17.20;99.90
38458;DHT22;24239;48.058;10.486;2022-08-19T03:03:31;17.10;99.90
38458;DHT22;24239;48.058;10.486;2022-08-19T03:06:09;17.20;99.90
38458;DHT22;24239;48.058;10.486;2022-08-19T03:08:37;17.20;99.90
38458;DHT22;24239;48.058;10.486;2022-08-19T03:11:03;17.10;99.90
38458;DHT22;24239;48.058;10.486;2022-08-19T03:13:29;17.10;99.90
38458;DHT22;24239;48.058;10.486;2022-08-19T03:15:55;17.10;99.90
38458;DHT22;24239;48.058;10.486;2022-08-19T03:18:21;17.00;99.90
38458;DHT22;24239;48.058;10.486;2022-08-19T03:20:49;17.00;99.90
38458;DHT22;24239;48.058;10.486;2022-08-19T03:23:16;17.00;99.90
38458;DHT22;24239;48.058;10.486;2022-08-19T03:25:45;17.00;99.90
38458;DHT22;24239;48.058;10.486;2022-08-19T03:28:12;17.00;99.90
38458;DHT22;24239;48.058;10.486;2022-08-19T03:30:39;17.00;99.90
38458;DHT22;24239;48.058;10.486;2022-08-19T03:33:08;16.90;99.90
38458;DHT22;24239;48.058;10.486;2022-08-19T03:35:42;17.00;99.90
38458;DHT22;24239;48.058;10.486;2022-08-19T03:38:08;17.00;99.90
38458;DHT22;24239;48.058;10.486;2022-08-19T03:40:36;17.00;99.90
38458;DHT22;24239;48.058;10.486;2022-08-19T03:43:02;17.10;99.90
38458;DHT22;24239;48.058;10.486;2022-08-19T03:45:28;17.10;99.90
38458;DHT22;24239;48.058;10.486;2022-08-19T03:47:55;17.00;99.90
38458;DHT22;24239;48.058;10.486;2022-08-19T03:50:21;17.00;99.90
38458;DHT22;24239;48.058;10.486;2022-08-19T03:52:50;17.00;99.90
38458;DHT22;24239;48.058;10.486;2022-08-19T03:55:17;17.10;99.90
38458;DHT22;24239;48.058;10.486;2022-08-19T03:57:43;17.00;99.90
38458;DHT22;24239;48.058;10.486;2022-08-19T04:00:13;17.00;99.90
38458;DHT22;24239;48.058;10.486;2022-08-19T04:02:40;17.00;99.90
38458;DHT22;24239;48.058;10.486;2022-08-19T04:05:10;17.00;99.90
38458;DHT22;24239;48.058;10.486;2022-08-19T04:07:35;17.00;99.90
38458;DHT22;24239;48.058;10.486;2022-08-19T04:10:02;17.00;99.90
38458;DHT22;24239;48.058;10.486;2022-08-19T04:12:28;17.00;99.90
38458;DHT22;24239;48.058;10.486;2022-08-19T04:14:54;17.00;99.90
38458;DHT22;24239;48.058;10.486;2022-08-19T04:17:20;17.00;99.90
38458;DHT22;24239;48.058;10.486;2022-08-19T04:19:45;17.00;99.90
38458;DHT22;24239;48.058;10.486;2022-08-19T04:22:11;17.00;99.90
38458;DHT22;24239;48.058;10.486;2022-08-19T04:24:37;17.00;99.90
38458;DHT22;24239;48.058;10.486;2022-08-19T04:27:04;17.00;99.90
38458;DHT22;24239;48.058;10.486;2022-08-19T04:29:30;17.00;99.90
38458;DHT22;24239;48.058;10.486;2022-08-19T04:31:57;17.00;99.90
38458;DHT22;24239;48.058;10.486;2022-08-19T04:34:26;17.00;99.90
38458;DHT22;24239;48.058;10.486;2022-08-19T04:36:53;17.00;99.90
38458;DHT22;24239;48.058;10.486;2022-08-19T04:39:29;17.00;99.90
38458;DHT22;24239;48.058;10.486;2022-08-19T04:42:15;17.00;99.90
38458;DHT22;24239;48.058;10.486;2022-08-19T04:45:00;17.00;99.90
38458;DHT22;24239;48.058;10.486;2022-08-19T04:47:28;17.10;99.90
38458;DHT22;24239;48.058;10.486;2022-08-19T04:49:55;17.10;99.90
38458;DHT22;24239;48.058;10.486;2022-08-19T04:52:21;17.10;99.90
38458;DHT22;24239;48.058;10.486;2022-08-19T04:54:46;17.10;99.90
38458;DHT22;24239;48.058;10.486;2022-08-19T04:57:13;17.10;99.90
38458;DHT22;24239;48.058;10.486;2022-08-19T04:59:39;17.10;99.90
38458;DHT22;24239;48.058;10.486;2022-08-19T05:02:08;17.20;99.90
38458;DHT22;24239;48.058;10.486;2022-08-19T05:04:35;17.10;99.90
38458;DHT22;24239;48.058;10.486;2022-08-19T05:07:04;17.20;99.90
38458;DHT22;24239;48.058;10.486;2022-08-19T05:09:29;17.10;99.90
38458;DHT22;24239;48.058;10.486;2022-08-19T05:11:58;17.10;99.90
38458;DHT22;24239;48.058;10.486;2022-08-19T05:14:25;17.20;99.90
38458;DHT22;24239;48.058;10.486;2022-08-19T05:16:51;17.20;99.90
38458;DHT22;24239;48.058;10.486;2022-08-19T05:19:16;17.30;99.90
38458;DHT22;24239;48.058;10.486;2022-08-19T05:22:01;17.20;99.90
38458;DHT22;24239;48.058;10.486;2022-08-19T05:24:45;17.20;99.90
38458;DHT22;24239;48.058;10.486;2022-08-19T05:27:11;17.20;99.90
38458;DHT22;24239;48.058;10.486;2022-08-19T05:29:37;17.20;99.90
38458;DHT22;24239;48.058;10.486;2022-08-19T05:32:06;17.20;99.90
38458;DHT22;24239;48.058;10.486;2022-08-19T05:34:36;17.30;99.90
38458;DHT22;24239;48.058;10.486;2022-08-19T05:37:05;17.30;99.90
38458;DHT22;24239;48.058;10.486;2022-08-19T05:39:35;17.20;99.90
38458;DHT22;24239;48.058;10.486;2022-08-19T05:42:05;17.30;99.90
38458;DHT22;24239;48.058;10.486;2022-08-19T05:44:37;17.40;99.90
38458;DHT22;24239;48.058;10.486;2022-08-19T05:47:06;17.40;99.90
38458;DHT22;24239;48.058;10.486;2022-08-19T05:49:35;17.40;99.90
38458;DHT22;24239;48.058;10.486;2022-08-19T05:52:07;17.40;99.90
38458;DHT22;24239;48.058;10.486;2022-08-19T05:54:34;17.40;99.90
38458;DHT22;24239;48.058;10.486;2022-08-19T05:57:01;17.40;99.90
38458;DHT22;24239;48.058;10.486;2022-08-19T05:59:30;17.40;99.90
38458;DHT22;24239;48.058;10.486;2022-08-19T06:01:56;17.30;99.90
38458;DHT22;24239;48.058;10.486;2022-08-19T06:04:24;17.30;99.90
38458;DHT22;24239;48.058;10.486;2022-08-19T06:06:52;17.30;99.90
38458;DHT22;24239;48.058;10.486;2022-08-19T06:09:21;17.30;99.90
38458;DHT22;24239;48.058;10.486;2022-08-19T06:11:52;17.30;99.90
38458;DHT22;24239;48.058;10.486;2022-08-19T06:14:28;17.20;99.90
38458;DHT22;24239;48.058;10.486;2022-08-19T06:16:54;17.20;99.90
38458;DHT22;24239;48.058;10.486;2022-08-19T06:19:30;17.20;99.90
38458;DHT22;24239;48.058;10.486;2022-08-19T06:22:00;17.10;99.90
38458;DHT22;24239;48.058;10.486;2022-08-19T06:24:30;17.10;99.90
38458;DHT22;24239;48.058;10.486;2022-08-19T06:26:58;17.00;99.90
38458;DHT22;24239;48.058;10.486;2022-08-19T06:29:26;17.00;99.90
38458;DHT22;24239;48.058;10.486;2022-08-19T06:31:56;16.90;99.90
38458;DHT22;24239;48.058;10.486;2022-08-19T06:34:23;16.90;99.90
38458;DHT22;24239;48.058;10.486;2022-08-19T06:36:53;16.90;99.90
38458;DHT22;24239;48.058;10.486;2022-08-19T06:39:22;16.90;99.90
38458;DHT22;24239;48.058;10.486;2022-08-19T06:41:52;16.90;99.90
38458;DHT22;24239;48.058;10.486;2022-08-19T06:44:20;17.00;99.90
38458;DHT22;24239;48.058;10.486;2022-08-19T06:46:47;17.00;99.90
38458;DHT22;24239;48.058;10.486;2022-08-19T06:49:14;17.00;99.90
38458;DHT22;24239;48.058;10.486;2022-08-19T06:51:41;17.00;99.90
38458;DHT22;24239;48.058;10.486;2022-08-19T06:54:07;17.00;99.90
38458;DHT22;24239;48.058;10.486;2022-08-19T06:56:33;17.00;99.90
38458;DHT22;24239;48.058;10.486;2022-08-19T06:59:12;17.00;99.90
38458;DHT22;24239;48.058;10.486;2022-08-19T07:01:43;17.00;99.90
38458;DHT22;24239;48.058;10.486;2022-08-19T07:04:11;17.00;99.90
38458;DHT22;24239;48.058;10.486;2022-08-19T07:06:37;17.00;99.90
38458;DHT22;24239;48.058;10.486;2022-08-19T07:09:08;17.00;99.90
38458;DHT22;24239;48.058;10.486;2022-08-19T07:11:34;16.90;99.90
38458;DHT22;24239;48.058;10.486;2022-08-19T07:14:01;16.90;99.90
38458;DHT22;24239;48.058;10.486;2022-08-19T07:16:27;16.90;99.90
38458;DHT22;24239;48.058;10.486;2022-08-19T07:18:54;16.90;99.90
38458;DHT22;24239;48.058;10.486;2022-08-19T07:21:26;16.80;99.90
38458;DHT22;24239;48.058;10.486;2022-08-19T07:23:54;16.80;99.90
38458;DHT22;24239;48.058;10.486;2022-08-19T07:26:26;16.80;99.90
38458;DHT22;24239;48.058;10.486;2022-08-19T07:28:53;16.80;99.90
38458;DHT22;24239;48.058;10.486;2022-08-19T07:31:21;16.90;99.90
38458;DHT22;24239;48.058;10.486;2022-08-19T07:33:49;16.80;99.90
38458;DHT22;24239;48.058;10.486;2022-08-19T07:36:20;16.70;99.90
38458;DHT22;24239;48.058;10.486;2022-08-19T07:38:48;16.70;99.90
38458;DHT22;24239;48.058;10.486;2022-08-19T07:41:21;16.70;99.90
38458;DHT22;24239;48.058;10.486;2022-08-19T07:43:48;16.70;99.90
38458;DHT22;24239;48.058;10.486;2022-08-19T07:46:15;16.70;99.90
38458;DHT22;24239;48.058;10.486;2022-08-19T07:48:43;16.80;99.90
38458;DHT22;24239;48.058;10.486;2022-08-19T07:51:14;16.70;99.90
38458;DHT22;24239;48.058;10.486;2022-08-19T07:53:40;16.80;99.90
38458;DHT22;24239;48.058;10.486;2022-08-19T07:56:06;16.80;99.90
38458;DHT22;24239;48.058;10.486;2022-08-19T07:58:35;16.90;99.90
38458;DHT22;24239;48.058;10.486;2022-08-19T08:01:03;16.80;99.90
38458;DHT22;24239;48.058;10.486;2022-08-19T08:03:29;16.80;99.90
38458;DHT22;24239;48.058;10.486;2022-08-19T08:06:14;16.80;99.90
38458;DHT22;24239;48.058;10.486;2022-08-19T08:09:00;16.80;99.90
38458;DHT22;24239;48.058;10.486;2022-08-19T08:12:02;16.80;99.90
38458;DHT22;24239;48.058;10.486;2022-08-19T08:14:49;16.80;99.90
38458;DHT22;24239;48.058;10.486;2022-08-19T08:17:21;16.80;99.90
38458;DHT22;24239;48.058;10.486;2022-08-19T08:19:47;16.80;99.90
38458;DHT22;24239;48.058;10.486;2022-08-19T08:22:17;16.80;99.90
38458;DHT22;24239;48.058;10.486;2022-08-19T08:25:07;16.70;99.90
38458;DHT22;24239;48.058;10.486;2022-08-19T08:27:38;16.70;99.90
38458;DHT22;24239;48.058;10.486;2022-08-19T08:30:07;16.80;99.90
38458;DHT22;24239;48.058;10.486;2022-08-19T08:32:36;16.70;99.90
38458;DHT22;24239;48.058;10.486;2022-08-19T08:35:04;16.70;99.90
38458;DHT22;24239;48.058;10.486;2022-08-19T08:37:30;16.70;99.90
38458;DHT22;24239;48.058;10.486;2022-08-19T08:39:56;16.70;99.90
38458;DHT22;24239;48.058;10.486;2022-08-19T08:42:34;16.70;99.90
38458;DHT22;24239;48.058;10.486;2022-08-19T08:45:13;16.80;99.90
38458;DHT22;24239;48.058;10.486;2022-08-19T08:47:44;16.80;99.90
38458;DHT22;24239;48.058;10.486;2022-08-19T08:50:39;16.80;99.90
38458;DHT22;24239;48.058;10.486;2022-08-19T08:53:08;16.70;99.90
38458;DHT22;24239;48.058;10.486;2022-08-19T08:55:36;16.80;99.90
38458;DHT22;24239;48.058;10.486;2022-08-19T08:58:12;16.70;99.90
38458;DHT22;24239;48.058;10.486;2022-08-19T09:00:46;16.80;99.90
38458;DHT22;24239;48.058;10.486;2022-08-19T09:11:07;16.80;99.90
38458;DHT22;24239;48.058;10.486;2022-08-19T09:14:02;16.80;99.90
38458;DHT22;24239;48.058;10.486;2022-08-19T09:16:32;16.90;99.90
38458;DHT22;24239;48.058;10.486;2022-08-19T09:19:04;16.90;99.90
38458;DHT22;24239;48.058;10.486;2022-08-19T09:21:30;16.90;99.90
38458;DHT22;24239;48.058;10.486;2022-08-19T09:23:55;16.90;99.90
38458;DHT22;24239;48.058;10.486;2022-08-19T09:26:24;16.90;99.90
38458;DHT22;24239;48.058;10.486;2022-08-19T09:28:52;16.90;99.90
38458;DHT22;24239;48.058;10.486;2022-08-19T09:31:24;16.90;99.90
38458;DHT22;24239;48.058;10.486;2022-08-19T09:33:51;16.90;99.90
38458;DHT22;24239;48.058;10.486;2022-08-19T09:36:19;16.90;99.90
38458;DHT22;24239;48.058;10.486;2022-08-19T09:38:46;16.90;99.90
38458;DHT22;24239;48.058;10.486;2022-08-19T09:41:15;16.90;99.90
38458;DHT22;24239;48.058;10.486;2022-08-19T09:43:46;16.90;99.90
38458;DHT22;24239;48.058;10.486;2022-08-19T09:46:12;16.90;99.90
38458;DHT22;24239;48.058;10.486;2022-08-19T09:48:40;16.90;99.90
38458;DHT22;24239;48.058;10.486;2022-08-19T09:51:12;16.80;99.90
38458;DHT22;24239;48.058;10.486;2022-08-19T09:53:41;16.80;99.90
38458;DHT22;24239;48.058;10.486;2022-08-19T09:56:08;16.80;99.90
38458;DHT22;24239;48.058;10.486;2022-08-19T09:58:34;16.70;99.90
38458;DHT22;24239;48.058;10.486;2022-08-19T10:01:01;16.70;99.90
38458;DHT22;24239;48.058;10.486;2022-08-19T10:03:28;16.70;99.90
38458;DHT22;24239;48.058;10.486;2022-08-19T10:05:55;16.70;99.90
38458;DHT22;24239;48.058;10.486;2022-08-19T10:08:28;16.60;99.90
38458;DHT22;24239;48.058;10.486;2022-08-19T10:10:55;16.60;99.90
38458;DHT22;24239;48.058;10.486;2022-08-19T10:13:24;16.70;99.90
38458;DHT22;24239;48.058;10.486;2022-08-19T10:15:57;16.60;99.90
38458;DHT22;24239;48.058;10.486;2022-08-19T10:18:27;16.70;99.90
38458;DHT22;24239;48.058;10.486;2022-08-19T10:21:12;16.60;99.90
38458;DHT22;24239;48.058;10.486;2022-08-19T10:23:40;16.60;99.90
38458;DHT22;24239;48.058;10.486;2022-08-19T10:26:10;16.60;99.90
38458;DHT22;24239;48.058;10.486;2022-08-19T10:28:37;16.50;99.90
38458;DHT22;24239;48.058;10.486;2022-08-19T10:31:06;16.50;99.90
38458;DHT22;24239;48.058;10.486;2022-08-19T10:33:33;16.60;99.90
38458;DHT22;24239;48.058;10.486;2022-08-19T10:36:01;16.50;99.90
38458;DHT22;24239;48.058;10.486;2022-08-19T10:38:27;16.50;99.90
38458;DHT22;24239;48.058;10.486;2022-08-19T10:40:54;16.50;99.90
38458;DHT22;24239;48.058;10.486;2022-08-19T10:43:20;16.50;99.90
38458;DHT22;24239;48.058;10.486;2022-08-19T10:45:52;16.50;99.90
38458;DHT22;24239;48.058;10.486;2022-08-19T10:48:21;16.50;99.90
38458;DHT22;24239;48.058;10.486;2022-08-19T10:50:47;16.40;99.90
38458;DHT22;24239;48.058;10.486;2022-08-19T10:53:31;16.40;99.90
38458;DHT22;24239;48.058;10.486;2022-08-19T10:55:57;16.50;99.90
38458;DHT22;24239;48.058;10.486;2022-08-19T10:58:44;16.40;99.90
38458;DHT22;24239;48.058;10.486;2022-08-19T11:01:10;16.40;99.90
38458;DHT22;24239;48.058;10.486;2022-08-19T11:03:35;16.30;99.90
38458;DHT22;24239;48.058;10.486;2022-08-19T11:06:07;16.30;99.90
38458;DHT22;24239;48.058;10.486;2022-08-19T11:08:34;16.30;99.90
38458;DHT22;24239;48.058;10.486;2022-08-19T11:11:02;16.30;99.90
38458;DHT22;24239;48.058;10.486;2022-08-19T11:13:32;16.30;99.90
38458;DHT22;24239;48.058;10.486;2022-08-19T11:16:09;16.30;99.90
38458;DHT22;24239;48.058;10.486;2022-08-19T11:18:37;16.40;99.90
38458;DHT22;24239;48.058;10.486;2022-08-19T11:21:09;16.40;99.90
38458;DHT22;24239;48.058;10.486;2022-08-19T11:23:35;16.40;99.90
38458;DHT22;24239;48.058;10.486;2022-08-19T11:26:01;16.40;99.90
38458;DHT22;24239;48.058;10.486;2022-08-19T11:28:27;16.40;99.90
38458;DHT22;24239;48.058;10.486;2022-08-19T11:30:53;16.40;99.90
38458;DHT22;24239;48.058;10.486;2022-08-19T11:33:19;16.40;99.90
38458;DHT22;24239;48.058;10.486;2022-08-19T11:35:44;16.40;99.90
38458;DHT22;24239;48.058;10.486;2022-08-19T11:38:10;16.40;99.90
38458;DHT22;24239;48.058;10.486;2022-08-19T11:40:37;16.40;99.90
38458;DHT22;24239;48.058;10.486;2022-08-19T11:43:03;16.30;99.90
38458;DHT22;24239;48.058;10.486;2022-08-19T11:45:30;16.30;99.90
38458;DHT22;24239;48.058;10.486;2022-08-19T11:47:56;16.30;99.90
38458;DHT22;24239;48.058;10.486;2022-08-19T11:50:23;16.30;99.90
38458;DHT22;24239;48.058;10.486;2022-08-19T11:52:49;16.30;99.90
38458;DHT22;24239;48.058;10.486;2022-08-19T11:55:15;16.30;99.90
38458;DHT22;24239;48.058;10.486;2022-08-19T11:57:41;16.30;99.90
38458;DHT22;24239;48.058;10.486;2022-08-19T12:00:15;16.30;99.90
38458;DHT22;24239;48.058;10.486;2022-08-19T12:02:44;16.20;99.90
38458;DHT22;24239;48.058;10.486;2022-08-19T12:05:12;16.20;99.90
38458;DHT22;24239;48.058;10.486;2022-08-19T12:07:39;16.20;99.90
38458;DHT22;24239;48.058;10.486;2022-08-19T12:10:05;16.10;99.90
38458;DHT22;24239;48.058;10.486;2022-08-19T12:12:31;16.20;99.90
38458;DHT22;24239;48.058;10.486;2022-08-19T12:14:59;16.20;99.90
38458;DHT22;24239;48.058;10.486;2022-08-19T12:17:28;16.20;99.90
38458;DHT22;24239;48.058;10.486;2022-08-19T12:19:54;16.20;99.90
38458;DHT22;24239;48.058;10.486;2022-08-19T12:22:23;16.10;99.90
38458;DHT22;24239;48.058;10.486;2022-08-19T12:24:49;16.10;99.90
38458;DHT22;24239;48.058;10.486;2022-08-19T12:27:18;16.10;99.90
38458;DHT22;24239;48.058;10.486;2022-08-19T12:29:44;16.10;99.90
38458;DHT22;24239;48.058;10.486;2022-08-19T12:32:09;16.10;99.90
38458;DHT22;24239;48.058;10.486;2022-08-19T12:34:35;16.10;99.90
38458;DHT22;24239;48.058;10.486;2022-08-19T12:37:04;16.10;99.90
38458;DHT22;24239;48.058;10.486;2022-08-19T12:39:34;16.10;99.90
38458;DHT22;24239;48.058;10.486;2022-08-19T12:42:00;16.10;99.90
38458;DHT22;24239;48.058;10.486;2022-08-19T12:44:26;16.20;99.90
38458;DHT22;24239;48.058;10.486;2022-08-19T12:46:52;16.10;99.90
38458;DHT22;24239;48.058;10.486;2022-08-19T12:49:17;16.10;99.90
38458;DHT22;24239;48.058;10.486;2022-08-19T12:51:43;16.20;99.90
38458;DHT22;24239;48.058;10.486;2022-08-19T12:54:09;16.10;99.90
38458;DHT22;24239;48.058;10.486;2022-08-19T12:56:36;16.20;99.90
38458;DHT22;24239;48.058;10.486;2022-08-19T12:59:03;16.20;99.90
38458;DHT22;24239;48.058;10.486;2022-08-19T13:01:29;16.20;99.90
38458;DHT22;24239;48.058;10.486;2022-08-19T13:03:58;16.20;99.90
38458;DHT22;24239;48.058;10.486;2022-08-19T13:06:25;16.20;99.90
38458;DHT22;24239;48.058;10.486;2022-08-19T13:08:51;16.20;99.90
38458;DHT22;24239;48.058;10.486;2022-08-19T13:11:20;16.30;99.90
38458;DHT22;24239;48.058;10.486;2022-08-19T13:13:49;16.20;99.90
38458;DHT22;24239;48.058;10.486;2022-08-19T13:16:16;16.30;99.90
38458;DHT22;24239;48.058;10.486;2022-08-19T13:18:44;16.30;99.90
38458;DHT22;24239;48.058;10.486;2022-08-19T13:21:12;16.30;99.90
38458;DHT22;24239;48.058;10.486;2022-08-19T13:23:39;16.30;99.90
38458;DHT22;24239;48.058;10.486;2022-08-19T13:26:09;16.30;99.90
38458;DHT22;24239;48.058;10.486;2022-08-19T13:28:35;16.40;99.90
38458;DHT22;24239;48.058;10.486;2022-08-19T13:31:22;16.30;99.90
38458;DHT22;24239;48.058;10.486;2022-08-19T13:34:07;16.30;99.90
38458;DHT22;24239;48.058;10.486;2022-08-19T13:36:37;16.40;99.90
38458;DHT22;24239;48.058;10.486;2022-08-19T13:39:07;16.40;99.90
38458;DHT22;24239;48.058;10.486;2022-08-19T13:41:35;16.40;99.90
38458;DHT22;24239;48.058;10.486;2022-08-19T13:44:02;16.50;99.90
38458;DHT22;24239;48.058;10.486;2022-08-19T13:46:27;16.50;99.90
38458;DHT22;24239;48.058;10.486;2022-08-19T13:48:55;16.50;99.90
38458;DHT22;24239;48.058;10.486;2022-08-19T13:51:21;16.60;99.90
38458;DHT22;24239;48.058;10.486;2022-08-19T13:53:48;16.60;99.90
38458;DHT22;24239;48.058;10.486;2022-08-19T13:56:18;16.60;99.90
38458;DHT22;24239;48.058;10.486;2022-08-19T13:58:48;16.60;99.90
38458;DHT22;24239;48.058;10.486;2022-08-19T14:01:20;16.60;99.90
38458;DHT22;24239;48.058;10.486;2022-08-19T14:03:46;16.70;99.90
38458;DHT22;24239;48.058;10.486;2022-08-19T14:06:11;16.70;99.90
38458;DHT22;24239;48.058;10.486;2022-08-19T14:08:37;16.80;99.90
38458;DHT22;24239;48.058;10.486;2022-08-19T14:11:05;16.80;99.90
38458;DHT22;24239;48.058;10.486;2022-08-19T14:13:30;17.00;99.90
38458;DHT22;24239;48.058;10.486;2022-08-19T14:15:59;17.00;99.90
38458;DHT22;24239;48.058;10.486;2022-08-19T14:18:25;17.10;99.90
38458;DHT22;24239;48.058;10.486;2022-08-19T14:20:51;17.20;99.90
38458;DHT22;24239;48.058;10.486;2022-08-19T14:23:17;17.20;99.90
38458;DHT22;24239;48.058;10.486;2022-08-19T14:25:44;17.20;99.90
38458;DHT22;24239;48.058;10.486;2022-08-19T14:28:12;17.20;99.90
38458;DHT22;24239;48.058;10.486;2022-08-19T14:30:38;17.20;99.90
38458;DHT22;24239;48.058;10.486;2022-08-19T14:33:05;17.20;99.90
38458;DHT22;24239;48.058;10.486;2022-08-19T14:35:33;17.10;99.90
38458;DHT22;24239;48.058;10.486;2022-08-19T14:38:00;17.10;99.90
38458;DHT22;24239;48.058;10.486;2022-08-19T14:40:32;17.00;99.90
38458;DHT22;24239;48.058;10.486;2022-08-19T14:43:03;17.00;99.90
38458;DHT22;24239;48.058;10.486;2022-08-19T14:45:35;17.00;99.90
38458;DHT22;24239;48.058;10.486;2022-08-19T14:48:01;17.10;99.90
38458;DHT22;24239;48.058;10.486;2022-08-19T14:50:27;17.10;99.90
38458;DHT22;24239;48.058;10.486;2022-08-19T14:53:01;17.00;99.90
38458;DHT22;24239;48.058;10.486;2022-08-19T14:55:29;17.00;99.90
38458;DHT22;24239;48.058;10.486;2022-08-19T14:57:55;16.90;99.90
38458;DHT22;24239;48.058;10.486;2022-08-19T15:00:21;16.90;99.90
38458;DHT22;24239;48.058;10.486;2022-08-19T15:02:48;16.80;99.90
38458;DHT22;24239;48.058;10.486;2022-08-19T15:05:14;16.70;99.90
38458;DHT22;24239;48.058;10.486;2022-08-19T15:07:40;16.70;99.90
38458;DHT22;24239;48.058;10.486;2022-08-19T15:10:08;16.70;99.90
38458;DHT22;24239;48.058;10.486;2022-08-19T15:12:35;16.60;99.90
38458;DHT22;24239;48.058;10.486;2022-08-19T15:15:01;16.60;99.90
38458;DHT22;24239;48.058;10.486;2022-08-19T15:17:30;16.70;99.90
38458;DHT22;24239;48.058;10.486;2022-08-19T15:19:56;16.60;99.90
38458;DHT22;24239;48.058;10.486;2022-08-19T15:22:21;16.60;99.90
38458;DHT22;24239;48.058;10.486;2022-08-19T15:24:47;16.50;99.90
38458;DHT22;24239;48.058;10.486;2022-08-19T15:27:13;16.60;99.90
38458;DHT22;24239;48.058;10.486;2022-08-19T15:29:39;16.60;99.90
38458;DHT22;24239;48.058;10.486;2022-08-19T15:32:07;16.70;99.90
38458;DHT22;24239;48.058;10.486;2022-08-19T15:34:33;16.80;99.90